sensor_id;sensor_type;location;lat;lon;timestamp;pressure;altitude;pressure_sealevel;temperature;humidity
48778;BME280;34578;0.000;0.000;2023-12-14T00:04:46;95616.53;;;17.79;58.07
48778;BME280;34578;0.000;0.000;2023-12-14T00:09:47;95619.88;;;17.81;58.40
48778;BME280;34578;0.000;0.000;2023-12-14T00:14:47;95626.63;;;17.82;58.14
48778;BME280;34578;0.000;0.000;2023-12-14T00:19:47;95618.31;;;17.72;58.35
48778;BME280;34578;0.000;0.000;2023-12-14T00:24:48;95646.03;;;17.81;58.40
48778;BME280;34578;0.000;0.000;2023-12-14T00:29:48;95637.72;;;17.75;58.13
48778;BME280;34578;0.000;0.000;2023-12-14T00:34:48;95651.09;;;17.80;58.14
48778;BME280;34578;0.000;0.000;2023-12-14T00:39:49;95658.72;;;17.80;58.13
48778;BME280;34578;0.000;0.000;2023-12-14T00:44:49;95664.63;;;17.79;58.36
48778;BME280;34578;0.000;0.000;2023-12-14T00:49:50;95677.28;;;17.79;58.46
48778;BME280;34578;0.000;0.000;2023-12-14T00:54:50;95682.34;;;17.79;58.16
48778;BME280;34578;0.000;0.000;2023-12-14T00:59:50;95692.47;;;17.79;58.20
48778;BME280;34578;0.000;0.000;2023-12-14T01:04:51;95696.72;;;17.77;58.21
48778;BME280;34578;0.000;0.000;2023-12-14T01:09:51;95706.00;;;17.78;58.35
48778;BME280;34578;0.000;0.000;2023-12-14T01:14:51;95709.34;;;17.80;58.10
48778;BME280;34578;0.000;0.000;2023-12-14T01:19:52;95710.25;;;17.77;58.42
48778;BME280;34578;0.000;0.000;2023-12-14T01:24:52;95725.44;;;17.77;58.16
48778;BME280;34578;0.000;0.000;2023-12-14T01:29:53;95736.38;;;17.78;58.36
48778;BME280;34578;0.000;0.000;2023-12-14T01:34:53;95735.56;;;17.74;58.43
48778;BME280;34578;0.000;0.000;2023-12-14T01:39:55;95754.97;;;17.77;58.62
48778;BME280;34578;0.000;0.000;2023-12-14T01:44:56;95763.38;;;17.79;58.17
48778;BME280;34578;0.000;0.000;2023-12-14T01:49:56;95761.69;;;17.78;57.94
48778;BME280;34578;0.000;0.000;2023-12-14T01:54:57;95772.69;;;17.77;58.25
48778;BME280;34578;0.000;0.000;2023-12-14T01:59:59;95778.59;;;17.76;58.38
48778;BME280;34578;0.000;0.000;2023-12-14T02:04:59;95770.31;;;17.65;58.29
48778;BME280;34578;0.000;0.000;2023-12-14T02:09:59;95785.34;;;17.75;58.12
48778;BME280;34578;0.000;0.000;2023-12-14T02:15:00;95800.56;;;17.74;58.44
48778;BME280;34578;0.000;0.000;2023-12-14T02:20:00;95798.03;;;17.74;58.42
48778;BME280;34578;0.000;0.000;2023-12-14T02:25:00;95805.63;;;17.74;58.84
48778;BME280;34578;0.000;0.000;2023-12-14T02:30:01;95812.38;;;17.72;59.06
48778;BME280;34578;0.000;0.000;2023-12-14T02:35:01;95814.91;;;17.72;58.95
48778;BME280;34578;0.000;0.000;2023-12-14T02:40:03;95815.78;;;17.72;59.25
48778;BME280;34578;0.000;0.000;2023-12-14T02:45:05;95825.09;;;17.69;59.54
48778;BME280;34578;0.000;0.000;2023-12-14T02:50:06;95836.06;;;17.68;59.46
48778;BME280;34578;0.000;0.000;2023-12-14T02:55:06;95841.13;;;17.68;59.66
48778;BME280;34578;0.000;0.000;2023-12-14T03:00:07;95838.59;;;17.68;59.84
48778;BME280;34578;0.000;0.000;2023-12-14T03:05:08;95846.25;;;17.65;60.02
48778;BME280;34578;0.000;0.000;2023-12-14T03:10:08;95859.72;;;17.64;59.69
48778;BME280;34578;0.000;0.000;2023-12-14T03:15:09;95858.91;;;17.62;59.79
48778;BME280;34578;0.000;0.000;2023-12-14T03:20:10;95874.91;;;17.64;59.75
48778;BME280;34578;0.000;0.000;2023-12-14T03:25:11;95880.88;;;17.61;59.63
48778;BME280;34578;0.000;0.000;2023-12-14T03:30:11;95889.28;;;17.62;59.78
48778;BME280;34578;0.000;0.000;2023-12-14T03:35:11;95891.81;;;17.63;59.74
48778;BME280;34578;0.000;0.000;2023-12-14T03:40:12;95894.34;;;17.62;59.61
48778;BME280;34578;0.000;0.000;2023-12-14T03:45:12;95908.66;;;17.64;59.65
48778;BME280;34578;0.000;0.000;2023-12-14T03:50:13;95909.53;;;17.63;59.85
48778;BME280;34578;0.000;0.000;2023-12-14T03:55:13;95909.56;;;17.60;59.89
48778;BME280;34578;0.000;0.000;2023-12-14T04:00:18;95928.91;;;17.63;59.72
48778;BME280;34578;0.000;0.000;2023-12-14T04:05:19;95938.22;;;17.61;59.75
48778;BME280;34578;0.000;0.000;2023-12-14T04:10:19;95947.53;;;17.59;59.83
48778;BME280;34578;0.000;0.000;2023-12-14T04:15:19;95955.94;;;17.61;59.90
48778;BME280;34578;0.000;0.000;2023-12-14T04:20:20;95964.34;;;17.63;59.74
48778;BME280;34578;0.000;0.000;2023-12-14T04:25:20;95968.59;;;17.59;60.18
48778;BME280;34578;0.000;0.000;2023-12-14T04:30:21;95981.25;;;17.61;59.92
48778;BME280;34578;0.000;0.000;2023-12-14T04:35:21;95985.44;;;17.65;60.35
48778;BME280;34578;0.000;0.000;2023-12-14T04:40:24;95993.91;;;17.61;59.77
48778;BME280;34578;0.000;0.000;2023-12-14T04:45:24;95995.53;;;17.69;58.71
48778;BME280;34578;0.000;0.000;2023-12-14T04:50:25;95997.22;;;17.70;58.58
48778;BME280;34578;0.000;0.000;2023-12-14T04:55:25;96006.47;;;17.73;58.93
48778;BME280;34578;0.000;0.000;2023-12-14T05:00:26;96008.97;;;17.74;59.02
48778;BME280;34578;0.000;0.000;2023-12-14T05:05:26;95997.25;;;17.66;58.53
48778;BME280;34578;0.000;0.000;2023-12-14T05:10:26;96027.50;;;17.76;59.43
48778;BME280;34578;0.000;0.000;2023-12-14T05:15:27;96036.00;;;17.72;58.93
48778;BME280;34578;0.000;0.000;2023-12-14T05:20:27;96056.22;;;17.77;58.25
48778;BME280;34578;0.000;0.000;2023-12-14T05:25:27;96067.19;;;17.77;58.96
48778;BME280;34578;0.000;0.000;2023-12-14T05:30:28;96074.78;;;17.77;58.77
48778;BME280;34578;0.000;0.000;2023-12-14T05:35:28;96079.00;;;17.77;59.00
48778;BME280;34578;0.000;0.000;2023-12-14T05:40:29;96087.44;;;17.74;59.09
48778;BME280;34578;0.000;0.000;2023-12-14T05:45:29;96090.00;;;17.74;58.67
48778;BME280;34578;0.000;0.000;2023-12-14T05:50:31;96095.06;;;17.77;58.31
48778;BME280;34578;0.000;0.000;2023-12-14T05:55:31;96102.69;;;17.70;57.56
48778;BME280;34578;0.000;0.000;2023-12-14T06:00:31;96113.66;;;17.69;57.10
48778;BME280;34578;0.000;0.000;2023-12-14T06:05:33;96124.53;;;17.80;56.74
48778;BME280;34578;0.000;0.000;2023-12-14T06:10:34;96138.88;;;17.84;57.02
48778;BME280;34578;0.000;0.000;2023-12-14T06:15:34;96149.88;;;17.83;57.62
48778;BME280;34578;0.000;0.000;2023-12-14T06:20:34;96160.81;;;17.85;57.75
48778;BME280;34578;0.000;0.000;2023-12-14T06:25:35;96166.72;;;17.82;57.00
48778;BME280;34578;0.000;0.000;2023-12-14T06:30:35;96181.19;;;17.59;55.35
48778;BME280;34578;0.000;0.000;2023-12-14T06:35:35;96196.34;;;17.70;56.39
48778;BME280;34578;0.000;0.000;2023-12-14T06:40:36;96195.50;;;17.71;56.80
48778;BME280;34578;0.000;0.000;2023-12-14T06:45:37;96205.56;;;17.80;56.95
48778;BME280;34578;0.000;0.000;2023-12-14T06:50:38;96214.03;;;17.77;57.24
48778;BME280;34578;0.000;0.000;2023-12-14T06:55:39;96217.41;;;17.78;56.65
48778;BME280;34578;0.000;0.000;2023-12-14T07:00:41;96222.47;;;17.78;56.93
48778;BME280;34578;0.000;0.000;2023-12-14T07:05:42;96232.59;;;17.78;56.97
48778;BME280;34578;0.000;0.000;2023-12-14T07:10:42;96243.53;;;17.84;56.94
48778;BME280;34578;0.000;0.000;2023-12-14T07:15:43;96247.72;;;17.87;56.76
48778;BME280;34578;0.000;0.000;2023-12-14T07:20:43;96261.22;;;17.89;57.23
48778;BME280;34578;0.000;0.000;2023-12-14T07:25:44;96272.19;;;17.92;57.20
48778;BME280;34578;0.000;0.000;2023-12-14T07:30:45;96279.78;;;17.92;57.54
48778;BME280;34578;0.000;0.000;2023-12-14T07:35:46;96292.47;;;17.91;57.25
48778;BME280;34578;0.000;0.000;2023-12-14T07:40:47;96298.38;;;17.87;57.44
48778;BME280;34578;0.000;0.000;2023-12-14T07:45:47;96305.16;;;17.86;57.63
48778;BME280;34578;0.000;0.000;2023-12-14T07:50:47;96310.25;;;17.82;57.27
48778;BME280;34578;0.000;0.000;2023-12-14T07:55:48;96323.72;;;17.84;57.11
48778;BME280;34578;0.000;0.000;2023-12-14T08:00:49;96332.16;;;17.81;57.25
48778;BME280;34578;0.000;0.000;2023-12-14T08:05:49;96337.25;;;17.83;57.21
48778;BME280;34578;0.000;0.000;2023-12-14T08:10:49;96352.41;;;17.80;57.03
48778;BME280;34578;0.000;0.000;2023-12-14T08:15:50;96363.41;;;17.80;57.03
48778;BME280;34578;0.000;0.000;2023-12-14T08:20:50;96369.34;;;17.75;56.97
48778;BME280;34578;0.000;0.000;2023-12-14T08:25:56;96381.13;;;17.82;56.83
48778;BME280;34578;0.000;0.000;2023-12-14T08:30:59;96387.88;;;17.80;57.05
48778;BME280;34578;0.000;0.000;2023-12-14T08:36:02;96403.91;;;17.80;56.67
48778;BME280;34578;0.000;0.000;2023-12-14T08:41:02;96416.56;;;17.80;56.90
48778;BME280;34578;0.000;0.000;2023-12-14T08:46:03;96426.69;;;17.79;56.65
48778;BME280;34578;0.000;0.000;2023-12-14T08:51:04;96439.38;;;17.80;56.71
48778;BME280;34578;0.000;0.000;2023-12-14T08:56:05;96447.78;;;17.81;56.46
48778;BME280;34578;0.000;0.000;2023-12-14T09:01:06;96453.69;;;17.80;56.76
48778;BME280;34578;0.000;0.000;2023-12-14T09:06:06;96465.50;;;17.81;56.42
48778;BME280;34578;0.000;0.000;2023-12-14T09:11:07;96479.91;;;17.77;56.45
48778;BME280;34578;0.000;0.000;2023-12-14T09:16:07;96490.84;;;17.79;56.42
48778;BME280;34578;0.000;0.000;2023-12-14T09:21:08;96499.28;;;17.80;56.26
48778;BME280;34578;0.000;0.000;2023-12-14T09:26:08;96503.50;;;17.76;56.24
48778;BME280;34578;0.000;0.000;2023-12-14T09:31:09;96503.50;;;17.78;56.39
48778;BME280;34578;0.000;0.000;2023-12-14T09:36:09;96515.31;;;17.79;56.34
48778;BME280;34578;0.000;0.000;2023-12-14T09:41:09;96511.09;;;17.78;56.22
48778;BME280;34578;0.000;0.000;2023-12-14T09:46:10;96527.97;;;17.79;56.28
48778;BME280;34578;0.000;0.000;2023-12-14T09:51:12;96529.69;;;17.77;56.24
48778;BME280;34578;0.000;0.000;2023-12-14T09:56:12;96533.06;;;17.79;55.56
48778;BME280;34578;0.000;0.000;2023-12-14T10:01:26;96547.41;;;17.75;56.21
48778;BME280;34578;0.000;0.000;2023-12-14T10:06:28;96547.41;;;17.75;56.68
48778;BME280;34578;0.000;0.000;2023-12-14T10:11:28;96554.16;;;17.79;56.12
48778;BME280;34578;0.000;0.000;2023-12-14T10:16:30;96563.47;;;17.82;56.02
48778;BME280;34578;0.000;0.000;2023-12-14T10:21:31;96571.88;;;17.82;56.09
48778;BME280;34578;0.000;0.000;2023-12-14T10:26:31;96580.31;;;17.89;56.03
48778;BME280;34578;0.000;0.000;2023-12-14T10:31:31;96582.03;;;17.93;56.67
48778;BME280;34578;0.000;0.000;2023-12-14T10:36:32;96585.41;;;18.01;57.25
48778;BME280;34578;0.000;0.000;2023-12-14T10:41:33;96589.59;;;18.05;56.95
48778;BME280;34578;0.000;0.000;2023-12-14T10:46:34;96598.88;;;18.16;57.17
48778;BME280;34578;0.000;0.000;2023-12-14T10:51:35;96603.97;;;18.24;57.07
48778;BME280;34578;0.000;0.000;2023-12-14T10:56:37;96618.34;;;18.29;56.94
48778;BME280;34578;0.000;0.000;2023-12-14T11:01:38;96622.56;;;18.27;56.93
48778;BME280;34578;0.000;0.000;2023-12-14T11:06:40;96633.53;;;18.20;56.85
48778;BME280;34578;0.000;0.000;2023-12-14T11:11:55;96636.06;;;18.16;56.71
48778;BME280;34578;0.000;0.000;2023-12-14T11:17:06;96638.59;;;18.10;56.91
48778;BME280;34578;0.000;0.000;2023-12-14T11:27:07;96644.50;;;18.13;56.65
48778;BME280;34578;0.000;0.000;2023-12-14T11:32:07;96658.00;;;18.14;56.58
48778;BME280;34578;0.000;0.000;2023-12-14T11:37:08;96654.66;;;18.10;56.71
48778;BME280;34578;0.000;0.000;2023-12-14T11:42:08;96654.63;;;18.03;56.66
48778;BME280;34578;0.000;0.000;2023-12-14T11:47:10;96664.75;;;18.06;56.56
48778;BME280;34578;0.000;0.000;2023-12-14T11:52:11;96683.34;;;18.08;56.57
48778;BME280;34578;0.000;0.000;2023-12-14T11:57:11;96684.22;;;18.11;56.91
48778;BME280;34578;0.000;0.000;2023-12-14T12:02:12;96685.88;;;18.09;56.86
48778;BME280;34578;0.000;0.000;2023-12-14T12:07:12;96691.81;;;18.16;56.74
48778;BME280;34578;0.000;0.000;2023-12-14T12:12:13;96717.13;;;18.08;57.34
48778;BME280;34578;0.000;0.000;2023-12-14T12:17:13;96712.06;;;18.07;57.19
48778;BME280;34578;0.000;0.000;2023-12-14T12:22:14;96716.28;;;18.06;57.58
48778;BME280;34578;0.000;0.000;2023-12-14T12:27:15;96723.03;;;18.09;57.27
48778;BME280;34578;0.000;0.000;2023-12-14T12:32:15;96728.97;;;18.08;57.37
48778;BME280;34578;0.000;0.000;2023-12-14T12:37:15;96733.16;;;18.06;57.63
48778;BME280;34578;0.000;0.000;2023-12-14T12:42:16;96728.97;;;18.08;57.09
48778;BME280;34578;0.000;0.000;2023-12-14T12:47:16;96732.31;;;18.08;57.02
48778;BME280;34578;0.000;0.000;2023-12-14T12:52:16;96734.00;;;18.09;56.80
48778;BME280;34578;0.000;0.000;2023-12-14T12:57:17;96733.19;;;18.10;56.78
48778;BME280;34578;0.000;0.000;2023-12-14T13:02:17;96741.63;;;18.11;56.88
48778;BME280;34578;0.000;0.000;2023-12-14T13:07:18;96745.84;;;18.07;56.84
48778;BME280;34578;0.000;0.000;2023-12-14T13:12:19;96752.59;;;18.07;56.79
48778;BME280;34578;0.000;0.000;2023-12-14T13:17:19;96760.19;;;18.05;56.82
48778;BME280;34578;0.000;0.000;2023-12-14T13:22:19;96759.34;;;18.05;56.67
48778;BME280;34578;0.000;0.000;2023-12-14T13:27:20;96756.81;;;18.05;56.73
48778;BME280;34578;0.000;0.000;2023-12-14T13:32:20;96761.03;;;18.04;56.71
48778;BME280;34578;0.000;0.000;2023-12-14T13:37:20;96771.16;;;18.04;56.54
48778;BME280;34578;0.000;0.000;2023-12-14T13:42:21;96782.97;;;18.04;56.54
48778;BME280;34578;0.000;0.000;2023-12-14T13:47:21;96777.91;;;18.04;56.60
48778;BME280;34578;0.000;0.000;2023-12-14T13:52:22;96785.53;;;18.05;56.51
48778;BME280;34578;0.000;0.000;2023-12-14T13:57:23;96797.34;;;18.05;56.51
48778;BME280;34578;0.000;0.000;2023-12-14T14:02:23;96804.09;;;18.06;56.40
48778;BME280;34578;0.000;0.000;2023-12-14T14:07:25;96813.41;;;18.07;56.17
48778;BME280;34578;0.000;0.000;2023-12-14T14:12:26;96824.38;;;18.07;56.35
48778;BME280;34578;0.000;0.000;2023-12-14T14:17:26;96836.19;;;18.05;56.45
48778;BME280;34578;0.000;0.000;2023-12-14T14:22:27;96843.78;;;18.04;56.50
48778;BME280;34578;0.000;0.000;2023-12-14T14:27:27;96855.59;;;17.99;56.38
48778;BME280;34578;0.000;0.000;2023-12-14T14:32:27;96837.81;;;17.85;56.54
48778;BME280;34578;0.000;0.000;2023-12-14T14:37:28;96870.78;;;18.00;56.48
48778;BME280;34578;0.000;0.000;2023-12-14T14:42:28;96874.19;;;18.01;56.39
48778;BME280;34578;0.000;0.000;2023-12-14T14:47:30;96889.41;;;18.02;56.55
48778;BME280;34578;0.000;0.000;2023-12-14T14:52:30;96895.28;;;18.00;56.74
48778;BME280;34578;0.000;0.000;2023-12-14T14:57:31;96909.59;;;17.95;57.33
48778;BME280;34578;0.000;0.000;2023-12-14T15:02:33;96921.41;;;17.90;58.02
48778;BME280;34578;0.000;0.000;2023-12-14T15:07:34;96928.16;;;17.91;58.60
48778;BME280;34578;0.000;0.000;2023-12-14T15:12:36;96935.78;;;17.95;58.34
48778;BME280;34578;0.000;0.000;2023-12-14T15:17:37;96951.88;;;18.02;57.86
48778;BME280;34578;0.000;0.000;2023-12-14T15:22:37;96941.72;;;18.00;57.81
48778;BME280;34578;0.000;0.000;2023-12-14T15:27:37;96947.66;;;18.02;57.78
48778;BME280;34578;0.000;0.000;2023-12-14T15:32:38;96967.06;;;18.05;57.72
48778;BME280;34578;0.000;0.000;2023-12-14T15:37:38;96997.47;;;18.05;57.91
48778;BME280;34578;0.000;0.000;2023-12-14T15:42:38;97010.97;;;18.01;57.98
48778;BME280;34578;0.000;0.000;2023-12-14T15:47:39;97018.59;;;18.05;58.41
48778;BME280;34578;0.000;0.000;2023-12-14T15:52:39;97031.25;;;18.01;58.87
48778;BME280;34578;0.000;0.000;2023-12-14T15:57:40;97040.53;;;18.05;58.19
48778;BME280;34578;0.000;0.000;2023-12-14T16:02:40;97033.78;;;17.98;55.64
48778;BME280;34578;0.000;0.000;2023-12-14T16:07:41;97040.50;;;17.97;55.70
48778;BME280;34578;0.000;0.000;2023-12-14T16:12:41;97054.88;;;18.00;56.10
48778;BME280;34578;0.000;0.000;2023-12-14T16:17:42;97065.88;;;17.99;56.81
48778;BME280;34578;0.000;0.000;2023-12-14T16:22:42;97079.38;;;18.01;57.43
48778;BME280;34578;0.000;0.000;2023-12-14T16:27:43;97078.56;;;18.05;57.70
48778;BME280;34578;0.000;0.000;2023-12-14T16:32:44;97090.41;;;18.07;57.03
48778;BME280;34578;0.000;0.000;2023-12-14T16:37:44;97085.34;;;18.09;57.44
48778;BME280;34578;0.000;0.000;2023-12-14T16:42:45;97094.66;;;18.13;56.98
48778;BME280;34578;0.000;0.000;2023-12-14T16:47:45;97104.00;;;18.17;57.09
48778;BME280;34578;0.000;0.000;2023-12-14T16:52:45;97103.94;;;18.14;57.75
48778;BME280;34578;0.000;0.000;2023-12-14T16:57:46;97118.31;;;18.13;58.54
48778;BME280;34578;0.000;0.000;2023-12-14T17:02:46;97125.03;;;18.07;57.43
48778;BME280;34578;0.000;0.000;2023-12-14T17:07:47;97127.50;;;17.98;58.83
48778;BME280;34578;0.000;0.000;2023-12-14T17:12:47;97129.19;;;18.00;58.11
48778;BME280;34578;0.000;0.000;2023-12-14T17:17:47;97142.69;;;17.99;59.10
48778;BME280;34578;0.000;0.000;2023-12-14T17:22:48;97157.91;;;18.01;58.98
48778;BME280;34578;0.000;0.000;2023-12-14T17:27:48;97164.66;;;17.99;58.52
48778;BME280;34578;0.000;0.000;2023-12-14T17:32:48;97174.81;;;17.99;58.92
48778;BME280;34578;0.000;0.000;2023-12-14T17:37:49;97180.69;;;17.99;58.86
48778;BME280;34578;0.000;0.000;2023-12-14T17:42:49;97192.53;;;17.99;59.10
48778;BME280;34578;0.000;0.000;2023-12-14T17:47:49;97198.44;;;17.98;58.85
48778;BME280;34578;0.000;0.000;2023-12-14T17:52:50;97197.59;;;18.00;58.77
48778;BME280;34578;0.000;0.000;2023-12-14T17:57:50;97201.00;;;18.01;58.68
48778;BME280;34578;0.000;0.000;2023-12-14T18:02:50;97201.84;;;18.06;58.04
48778;BME280;34578;0.000;0.000;2023-12-14T18:07:53;97205.28;;;18.08;58.15
48778;BME280;34578;0.000;0.000;2023-12-14T18:12:53;97217.13;;;18.12;58.44
48778;BME280;34578;0.000;0.000;2023-12-14T18:17:59;97228.22;;;18.21;58.36
48778;BME280;34578;0.000;0.000;2023-12-14T18:22:59;97232.53;;;18.30;58.70
48778;BME280;34578;0.000;0.000;2023-12-14T18:27:59;97239.41;;;18.40;58.63
48778;BME280;34578;0.000;0.000;2023-12-14T18:33:02;97239.44;;;18.46;60.12
48778;BME280;34578;0.000;0.000;2023-12-14T18:38:03;97250.50;;;18.54;58.74
48778;BME280;34578;0.000;0.000;2023-12-14T18:43:03;97258.13;;;18.57;58.60
48778;BME280;34578;0.000;0.000;2023-12-14T18:48:04;97255.56;;;18.52;58.52
48778;BME280;34578;0.000;0.000;2023-12-14T18:53:04;97269.88;;;18.44;58.30
48778;BME280;34578;0.000;0.000;2023-12-14T18:58:08;97279.97;;;18.41;58.64
48778;BME280;34578;0.000;0.000;2023-12-14T19:03:10;97285.84;;;18.39;58.29
48778;BME280;34578;0.000;0.000;2023-12-14T19:08:11;97299.31;;;18.32;57.68
48778;BME280;34578;0.000;0.000;2023-12-14T19:13:12;97307.69;;;18.28;58.14
48778;BME280;34578;0.000;0.000;2023-12-14T19:18:12;97316.97;;;18.29;58.54
48778;BME280;34578;0.000;0.000;2023-12-14T19:23:13;97331.34;;;18.27;58.59
48778;BME280;34578;0.000;0.000;2023-12-14T19:28:13;97336.47;;;18.31;58.42
48778;BME280;34578;0.000;0.000;2023-12-14T19:33:14;97350.03;;;18.32;58.24
48778;BME280;34578;0.000;0.000;2023-12-14T19:38:15;97354.19;;;18.30;58.14
48778;BME280;34578;0.000;0.000;2023-12-14T19:43:15;97376.88;;;18.21;59.16
48778;BME280;34578;0.000;0.000;2023-12-14T19:48:15;97382.00;;;18.24;58.92
48778;BME280;34578;0.000;0.000;2023-12-14T19:53:16;97390.34;;;18.18;59.20
48778;BME280;34578;0.000;0.000;2023-12-14T19:58:16;97399.00;;;18.29;58.58
48778;BME280;34578;0.000;0.000;2023-12-14T20:03:17;97395.53;;;18.26;58.59
48778;BME280;34578;0.000;0.000;2023-12-14T20:08:17;97406.59;;;18.29;58.65
48778;BME280;34578;0.000;0.000;2023-12-14T20:13:21;97424.34;;;18.31;58.39
48778;BME280;34578;0.000;0.000;2023-12-14T20:18:23;97431.06;;;18.27;58.45
48778;BME280;34578;0.000;0.000;2023-12-14T20:23:23;97435.25;;;18.27;58.58
48778;BME280;34578;0.000;0.000;2023-12-14T20:28:23;97447.94;;;18.27;58.36
48778;BME280;34578;0.000;0.000;2023-12-14T20:33:24;97451.25;;;18.21;59.40
48778;BME280;34578;0.000;0.000;2023-12-14T20:38:24;97455.53;;;18.27;58.12
48778;BME280;34578;0.000;0.000;2023-12-14T20:43:25;97472.41;;;18.25;58.15
48778;BME280;34578;0.000;0.000;2023-12-14T20:48:25;97469.06;;;18.29;58.01
48778;BME280;34578;0.000;0.000;2023-12-14T20:53:25;97482.59;;;18.28;58.25
48778;BME280;34578;0.000;0.000;2023-12-14T20:58:26;97496.09;;;18.27;58.17
48778;BME280;34578;0.000;0.000;2023-12-14T21:03:26;97509.59;;;18.26;58.35
48778;BME280;34578;0.000;0.000;2023-12-14T21:08:26;97511.28;;;18.24;58.21
48778;BME280;34578;0.000;0.000;2023-12-14T21:13:27;97521.41;;;18.24;57.83
48778;BME280;34578;0.000;0.000;2023-12-14T21:18:30;97533.19;;;18.22;58.10
48778;BME280;34578;0.000;0.000;2023-12-14T21:23:30;97545.00;;;18.20;58.39
48778;BME280;34578;0.000;0.000;2023-12-14T21:28:31;97552.56;;;18.18;58.51
48778;BME280;34578;0.000;0.000;2023-12-14T21:33:31;97559.34;;;18.18;58.29
48778;BME280;34578;0.000;0.000;2023-12-14T21:38:32;97570.25;;;18.14;58.80
48778;BME280;34578;0.000;0.000;2023-12-14T21:43:32;97576.22;;;18.17;58.38
48778;BME280;34578;0.000;0.000;2023-12-14T21:48:32;97588.94;;;18.22;58.14
48778;BME280;34578;0.000;0.000;2023-12-14T21:53:33;97600.78;;;18.23;58.14
48778;BME280;34578;0.000;0.000;2023-12-14T21:58:33;97604.91;;;18.16;58.42
48778;BME280;34578;0.000;0.000;2023-12-14T22:03:34;97615.13;;;18.21;58.07
48778;BME280;34578;0.000;0.000;2023-12-14T22:08:34;97621.03;;;18.20;58.05
48778;BME280;34578;0.000;0.000;2023-12-14T22:13:34;97623.53;;;18.17;58.37
48778;BME280;34578;0.000;0.000;2023-12-14T22:18:35;97630.25;;;18.16;57.89
48778;BME280;34578;0.000;0.000;2023-12-14T22:23:36;97639.56;;;18.16;58.25
48778;BME280;34578;0.000;0.000;2023-12-14T22:28:36;97644.63;;;18.16;57.95
48778;BME280;34578;0.000;0.000;2023-12-14T22:33:37;97663.25;;;18.18;58.00
48778;BME280;34578;0.000;0.000;2023-12-14T22:38:37;97666.63;;;18.17;58.14
48778;BME280;34578;0.000;0.000;2023-12-14T22:43:38;97663.03;;;18.04;59.05
48778;BME280;34578;0.000;0.000;2023-12-14T22:48:38;97679.81;;;17.99;59.18
48778;BME280;34578;0.000;0.000;2023-12-14T22:53:38;97682.31;;;17.96;58.17
48778;BME280;34578;0.000;0.000;2023-12-14T22:58:39;97699.25;;;18.00;58.58
48778;BME280;34578;0.000;0.000;2023-12-14T23:03:39;97702.69;;;18.02;58.83
48778;BME280;34578;0.000;0.000;2023-12-14T23:08:39;97716.16;;;18.01;58.95
48778;BME280;34578;0.000;0.000;2023-12-14T23:13:40;97715.34;;;18.01;59.48
48778;BME280;34578;0.000;0.000;2023-12-14T23:18:43;97715.25;;;17.96;59.70
48778;BME280;34578;0.000;0.000;2023-12-14T23:23:43;97725.34;;;17.95;59.63
48778;BME280;34578;0.000;0.000;2023-12-14T23:28:43;97732.13;;;17.94;59.77
48778;BME280;34578;0.000;0.000;2023-12-14T23:33:44;97732.94;;;17.95;59.80
48778;BME280;34578;0.000;0.000;2023-12-14T23:38:44;97739.75;;;17.97;59.57
48778;BME280;34578;0.000;0.000;2023-12-14T23:43:44;97745.63;;;17.95;59.59
48778;BME280;34578;0.000;0.000;2023-12-14T23:48:45;97743.94;;;17.95;59.52
48778;BME280;34578;0.000;0.000;2023-12-14T23:53:46;97749.94;;;17.99;59.46
48778;BME280;34578;0.000;0.000;2023-12-14T23:58:46;97757.53;;;18.00;59.27
